Time;durP1;ratioP1;P1;durP2;ratioP2;P2;SDS_P1;SDS_P2;PMS_P1;PMS_P2;Temp;Humidity;BMP_temperature;BMP_pressure;BME280_temperature;BME280_humidity;BME280_pressure;Samples;Min_cycle;Max_cycle;Signal;HPM_P1;HPM_P2
2022/12/28 00:00:22;;;;;;;18.35;6.10;;;;;;;;;;5107509;28;20042;-67
2022/12/28 00:02:48;;;;;;;19.25;6.28;;;;;;;;;;5089590;28;20064;-68
2022/12/28 00:05:16;;;;;;;14.00;6.50;;;;;;;;;;5108493;27;20054;-67
2022/12/28 00:07:43;;;;;;;13.13;5.43;;;;;;;;;;5105443;28;20051;-67
2022/12/28 00:10:09;;;;;;;22.67;6.53;;;;;;;;;;5107584;27;20043;-67
2022/12/28 00:12:35;;;;;;;15.27;6.32;;;;;;;;;;5088628;28;20169;-67
2022/12/28 00:15:01;;;;;;;17.70;6.72;;;;;;;;;;5102892;28;20039;-67
2022/12/28 00:17:27;;;;;;;16.25;6.30;;;;;;;;;;5107698;27;20039;-67
2022/12/28 00:19:53;;;;;;;16.83;6.57;;;;;;;;;;5105548;27;20036;-67
2022/12/28 00:22:19;;;;;;;17.40;6.25;;;;;;;;;;5101979;28;20073;-67
2022/12/28 00:24:46;;;;;;;11.45;5.82;;;;;;;;;;5092440;27;20379;-67
2022/12/28 00:27:12;;;;;;;13.70;6.97;;;;;;;;;;5106523;28;20137;-67
2022/12/28 00:29:38;;;;;;;18.23;6.50;;;;;;;;;;5104660;28;20368;-67
2022/12/28 00:32:04;;;;;;;15.07;6.43;;;;;;;;;;5106997;27;20091;-67
2022/12/28 00:34:31;;;;;;;14.93;6.68;;;;;;;;;;5107373;27;20044;-67
2022/12/28 00:36:57;;;;;;;20.27;7.95;;;;;;;;;;5103526;28;20044;-68
2022/12/28 00:39:23;;;;;;;19.10;7.03;;;;;;;;;;5086514;28;20048;-67
2022/12/28 00:41:49;;;;;;;15.02;6.80;;;;;;;;;;5106929;27;20562;-67
2022/12/28 00:44:15;;;;;;;21.30;7.57;;;;;;;;;;5082298;28;20062;-67
2022/12/28 00:46:41;;;;;;;17.40;7.28;;;;;;;;;;5078922;28;20040;-67
2022/12/28 00:49:08;;;;;;;16.65;8.40;;;;;;;;;;5081517;28;20514;-67
2022/12/28 00:51:34;;;;;;;15.00;7.00;;;;;;;;;;5078695;28;20058;-67
2022/12/28 00:54:00;;;;;;;20.10;7.63;;;;;;;;;;5082244;28;20079;-67
2022/12/28 00:56:26;;;;;;;16.02;8.00;;;;;;;;;;5083170;28;20122;-67
2022/12/28 00:58:57;;;;;;;15.07;7.55;;;;;;;;;;5081822;28;20341;-67
2022/12/28 01:01:23;;;;;;;17.10;7.47;;;;;;;;;;5066249;28;20052;-67
2022/12/28 01:03:50;;;;;;;19.42;7.25;;;;;;;;;;5083571;28;20059;-67
2022/12/28 01:06:17;;;;;;;21.35;8.75;;;;;;;;;;5080783;28;20519;-67
2022/12/28 01:08:43;;;;;;;18.40;7.68;;;;;;;;;;5086249;28;20047;-67
2022/12/28 01:11:13;;;;;;;16.15;8.63;;;;;;;;;;5087258;28;20625;-67
2022/12/28 01:13:39;;;;;;;23.08;8.68;;;;;;;;;;5085843;28;20036;-67
2022/12/28 01:16:16;;;;;;;15.23;8.27;;;;;;;;;;5086189;28;20344;-67
2022/12/28 01:18:43;;;;;;;16.23;8.57;;;;;;;;;;5085763;28;20036;-67
2022/12/28 01:21:10;;;;;;;16.92;8.55;;;;;;;;;;5084756;28;20118;-67
2022/12/28 01:23:37;;;;;;;18.83;9.43;;;;;;;;;;5083631;28;20066;-67
2022/12/28 01:26:03;;;;;;;21.10;10.82;;;;;;;;;;5085514;28;20047;-67
2022/12/28 01:28:29;;;;;;;18.02;9.40;;;;;;;;;;5083404;28;20040;-67
2022/12/28 01:30:56;;;;;;;18.50;9.38;;;;;;;;;;5082865;28;20507;-67
2022/12/28 01:33:22;;;;;;;18.85;10.65;;;;;;;;;;5084044;28;20043;-67
2022/12/28 01:35:48;;;;;;;20.00;10.23;;;;;;;;;;5082590;28;20047;-67
2022/12/28 01:38:14;;;;;;;20.63;10.77;;;;;;;;;;5084068;28;20402;-67
2022/12/28 01:40:42;;;;;;;30.15;12.13;;;;;;;;;;5083180;28;20127;-67
2022/12/28 01:43:13;;;;;;;27.63;12.85;;;;;;;;;;5077619;28;20060;-67
2022/12/28 01:45:40;;;;;;;25.30;12.38;;;;;;;;;;5066555;28;20201;-67
2022/12/28 01:48:14;;;;;;;25.92;13.23;;;;;;;;;;5065863;28;20144;-67
2022/12/28 01:50:40;;;;;;;23.40;13.10;;;;;;;;;;5065812;28;20052;-67
2022/12/28 01:53:06;;;;;;;35.53;14.60;;;;;;;;;;5082039;28;20123;-67
2022/12/28 01:55:34;;;;;;;25.25;14.60;;;;;;;;;;5077354;28;20459;-67
2022/12/28 01:58:03;;;;;;;31.02;15.30;;;;;;;;;;5067764;28;20048;-67
2022/12/28 02:00:29;;;;;;;26.58;13.52;;;;;;;;;;5063356;28;20051;-67
2022/12/28 02:02:58;;;;;;;29.38;14.65;;;;;;;;;;5079665;28;20040;-67
2022/12/28 02:05:27;;;;;;;27.90;12.70;;;;;;;;;;5080121;28;20151;-67
2022/12/28 02:07:59;;;;;;;27.17;12.98;;;;;;;;;;5059475;28;20074;-66
2022/12/28 02:10:26;;;;;;;23.17;13.77;;;;;;;;;;5077808;28;20040;-67
2022/12/28 02:12:53;;;;;;;29.20;14.55;;;;;;;;;;5062949;28;20517;-67
2022/12/28 02:15:19;;;;;;;30.50;15.75;;;;;;;;;;5062143;28;20031;-67
2022/12/28 02:17:45;;;;;;;30.17;14.95;;;;;;;;;;5058397;28;20048;-67
2022/12/28 02:20:13;;;;;;;35.03;15.20;;;;;;;;;;5077578;28;20058;-67
2022/12/28 02:22:48;;;;;;;34.60;15.57;;;;;;;;;;5079248;28;20794;-67
2022/12/28 02:25:20;;;;;;;25.98;15.13;;;;;;;;;;5061031;28;20044;-66
2022/12/28 02:27:56;;;;;;;28.00;15.13;;;;;;;;;;5077593;28;20125;-66
2022/12/28 02:30:22;;;;;;;25.73;15.35;;;;;;;;;;5078911;28;20048;-67
2022/12/28 02:32:54;;;;;;;26.65;17.25;;;;;;;;;;5078507;28;20059;-67
2022/12/28 02:35:21;;;;;;;26.70;16.58;;;;;;;;;;5078494;28;20503;-67
2022/12/28 02:37:51;;;;;;;27.83;16.88;;;;;;;;;;5078714;28;20162;-67
2022/12/28 02:40:20;;;;;;;26.90;16.25;;;;;;;;;;5059310;28;20442;-67
2022/12/28 02:42:47;;;;;;;30.60;15.82;;;;;;;;;;5081002;28;20071;-67
2022/12/28 02:51:19;;;;;;;33.75;16.92;;;;;;;;;;5100971;28;20085;-67
2022/12/28 02:53:56;;;;;;;35.72;18.90;;;;;;;;;;5102983;28;20047;-67
2022/12/28 02:56:22;;;;;;;31.30;19.20;;;;;;;;;;5083578;28;20427;-66
2022/12/28 02:58:49;;;;;;;28.90;17.75;;;;;;;;;;5103412;28;20071;-67
2022/12/28 03:01:16;;;;;;;35.80;19.10;;;;;;;;;;5103126;28;20088;-67
2022/12/28 03:04:03;;;;;;;33.80;19.48;;;;;;;;;;5101161;28;20474;-67
2022/12/28 03:09:30;;;;;;;31.13;19.30;;;;;;;;;;5102240;28;20052;-66
2022/12/28 03:12:01;;;;;;;37.22;20.60;;;;;;;;;;5083321;28;20389;-66
2022/12/28 03:14:35;;;;;;;34.13;19.48;;;;;;;;;;5087685;28;20047;-66
2022/12/28 03:31:05;;;;;;;39.20;22.23;;;;;;;;;;5090305;28;20044;-66
2022/12/28 03:33:31;;;;;;;33.15;20.00;;;;;;;;;;5104931;28;20043;-66
2022/12/28 03:36:03;;;;;;;32.47;20.13;;;;;;;;;;5089200;28;20122;-67
2022/12/28 03:38:34;;;;;;;35.92;19.50;;;;;;;;;;5088311;28;20479;-66
2022/12/28 03:41:06;;;;;;;32.72;19.67;;;;;;;;;;5104987;28;20142;-67
2022/12/28 03:43:41;;;;;;;33.72;21.52;;;;;;;;;;5105315;28;20132;-66
2022/12/28 03:46:11;;;;;;;37.42;21.52;;;;;;;;;;5106351;28;20035;-66
2022/12/28 03:48:38;;;;;;;35.38;20.92;;;;;;;;;;5103713;28;20491;-66
2022/12/28 03:51:04;;;;;;;31.85;21.38;;;;;;;;;;5085707;28;20062;-66
2022/12/28 03:53:36;;;;;;;33.60;20.02;;;;;;;;;;5105159;28;20134;-66
2022/12/28 03:56:11;;;;;;;42.33;22.02;;;;;;;;;;5106398;28;20497;-66
2022/12/28 03:58:37;;;;;;;33.95;21.58;;;;;;;;;;5085988;28;20458;-66
2022/12/28 04:01:04;;;;;;;33.88;21.33;;;;;;;;;;5085373;28;20814;-66
2022/12/28 04:03:30;;;;;;;41.53;23.90;;;;;;;;;;5086639;28;20467;-67
2022/12/28 04:05:56;;;;;;;43.40;24.70;;;;;;;;;;5085321;28;20484;-66
2022/12/28 04:08:22;;;;;;;36.05;20.88;;;;;;;;;;5089280;28;20051;-67
2022/12/28 04:10:48;;;;;;;41.25;23.05;;;;;;;;;;5100693;28;20088;-67
2022/12/28 04:13:14;;;;;;;38.85;22.00;;;;;;;;;;5102733;28;20043;-67
2022/12/28 04:15:41;;;;;;;39.00;23.25;;;;;;;;;;5107431;28;20047;-66
2022/12/28 04:18:07;;;;;;;39.83;23.30;;;;;;;;;;5107805;28;20031;-66
2022/12/28 04:20:33;;;;;;;37.45;23.00;;;;;;;;;;5088803;28;20039;-67
2022/12/28 04:22:59;;;;;;;41.08;26.10;;;;;;;;;;5103963;28;20102;-67
2022/12/28 04:25:25;;;;;;;39.63;24.88;;;;;;;;;;5105765;28;20077;-66
2022/12/28 04:27:51;;;;;;;40.75;23.63;;;;;;;;;;5104841;28;20104;-67
2022/12/28 04:30:17;;;;;;;40.92;24.98;;;;;;;;;;5103861;28;20035;-67
2022/12/28 04:32:44;;;;;;;44.28;24.65;;;;;;;;;;5105469;28;20046;-66
2022/12/28 04:35:10;;;;;;;38.28;23.42;;;;;;;;;;5105879;28;20039;-67
2022/12/28 04:37:36;;;;;;;41.67;26.05;;;;;;;;;;5104843;28;20040;-66
2022/12/28 04:40:02;;;;;;;42.08;23.38;;;;;;;;;;5105772;28;20077;-67
2022/12/28 04:42:29;;;;;;;45.53;24.77;;;;;;;;;;5087599;28;20044;-66
2022/12/28 04:44:55;;;;;;;43.38;27.02;;;;;;;;;;5105407;28;20051;-66
2022/12/28 04:47:21;;;;;;;49.28;28.40;;;;;;;;;;5104514;28;20043;-67
2022/12/28 04:49:47;;;;;;;50.13;28.10;;;;;;;;;;5085743;28;20044;-67
2022/12/28 04:52:14;;;;;;;49.72;28.20;;;;;;;;;;5102701;28;20051;-66
2022/12/28 04:54:40;;;;;;;46.42;26.13;;;;;;;;;;5084453;28;20407;-67
2022/12/28 04:57:06;;;;;;;50.70;27.55;;;;;;;;;;5105283;28;20075;-66
2022/12/28 04:59:32;;;;;;;53.78;28.98;;;;;;;;;;5103924;28;20039;-66
2022/12/28 05:01:58;;;;;;;48.05;27.67;;;;;;;;;;5105535;28;20047;-67
2022/12/28 05:04:24;;;;;;;49.65;28.27;;;;;;;;;;5086989;28;20138;-67
2022/12/28 05:06:50;;;;;;;53.67;29.10;;;;;;;;;;5103776;28;20047;-67
2022/12/28 05:09:18;;;;;;;52.45;28.95;;;;;;;;;;5104399;28;20035;-67
2022/12/28 05:11:44;;;;;;;58.08;29.33;;;;;;;;;;5105469;28;20467;-67
2022/12/28 05:14:10;;;;;;;54.75;30.65;;;;;;;;;;5104354;28;20509;-67
2022/12/28 05:16:36;;;;;;;52.67;29.45;;;;;;;;;;5098299;28;20122;-67
2022/12/28 05:19:03;;;;;;;53.88;29.55;;;;;;;;;;5102789;28;20046;-67
2022/12/28 05:21:29;;;;;;;65.25;31.17;;;;;;;;;;5105908;28;20047;-67
2022/12/28 05:23:56;;;;;;;49.58;29.58;;;;;;;;;;5106023;28;20122;-66
2022/12/28 05:26:23;;;;;;;53.85;29.80;;;;;;;;;;5105050;28;20650;-66
2022/12/28 05:28:50;;;;;;;55.47;29.90;;;;;;;;;;5105860;28;20445;-66
2022/12/28 05:31:18;;;;;;;64.10;29.70;;;;;;;;;;5104808;28;20047;-67
2022/12/28 05:33:44;;;;;;;62.45;30.83;;;;;;;;;;5104536;28;20130;-67
2022/12/28 05:36:12;;;;;;;54.90;29.83;;;;;;;;;;5104401;28;20402;-67
2022/12/28 05:38:38;;;;;;;51.92;28.83;;;;;;;;;;5085563;28;20090;-67
2022/12/28 05:41:06;;;;;;;51.53;28.63;;;;;;;;;;5104745;28;20057;-67
2022/12/28 05:43:32;;;;;;;56.40;30.55;;;;;;;;;;5066537;28;20767;-67
2022/12/28 05:46:01;;;;;;;55.28;30.00;;;;;;;;;;5103554;28;20092;-67
2022/12/28 05:48:29;;;;;;;44.03;26.30;;;;;;;;;;5084762;28;20089;-67
2022/12/28 05:50:58;;;;;;;51.10;27.67;;;;;;;;;;5102762;28;20471;-67
2022/12/28 05:53:24;;;;;;;51.05;29.92;;;;;;;;;;5084971;28;20461;-67
2022/12/28 05:55:50;;;;;;;48.47;24.00;;;;;;;;;;5102912;28;20581;-67
2022/12/28 05:58:16;;;;;;;45.67;24.38;;;;;;;;;;5088348;28;20436;-67
2022/12/28 06:00:42;;;;;;;45.80;25.00;;;;;;;;;;5103718;28;20629;-67
2022/12/28 06:03:08;;;;;;;45.53;23.95;;;;;;;;;;5084273;28;20049;-67
2022/12/28 06:05:34;;;;;;;42.20;22.77;;;;;;;;;;5086409;28;20047;-67
2022/12/28 06:08:01;;;;;;;50.90;25.70;;;;;;;;;;5102028;28;20044;-67
2022/12/28 06:10:27;;;;;;;45.15;24.23;;;;;;;;;;5086608;28;20043;-67
2022/12/28 06:12:53;;;;;;;47.10;23.55;;;;;;;;;;5103092;28;20530;-67
2022/12/28 06:15:19;;;;;;;41.22;23.50;;;;;;;;;;5102782;28;20344;-67
2022/12/28 06:17:45;;;;;;;38.28;22.75;;;;;;;;;;5102274;28;20139;-67
2022/12/28 06:20:11;;;;;;;44.10;23.20;;;;;;;;;;5097098;28;20119;-67
2022/12/28 06:22:37;;;;;;;43.25;21.70;;;;;;;;;;5101716;28;20134;-67
2022/12/28 06:25:04;;;;;;;39.63;20.33;;;;;;;;;;5078574;28;20040;-67
2022/12/28 06:27:30;;;;;;;42.97;20.27;;;;;;;;;;5103495;28;20051;-67
2022/12/28 06:29:56;;;;;;;48.92;21.23;;;;;;;;;;5104772;28;20079;-67
2022/12/28 06:32:22;;;;;;;36.63;20.75;;;;;;;;;;5107952;28;20439;-67
2022/12/28 06:34:48;;;;;;;40.22;20.73;;;;;;;;;;5106300;28;20060;-67
2022/12/28 06:37:14;;;;;;;41.28;20.40;;;;;;;;;;5088006;28;20505;-67
2022/12/28 06:39:40;;;;;;;39.35;20.75;;;;;;;;;;5106278;28;21034;-66
2022/12/28 06:42:07;;;;;;;46.33;21.60;;;;;;;;;;5088585;28;20487;-66
2022/12/28 06:44:33;;;;;;;34.05;19.08;;;;;;;;;;5106505;28;20470;-66
2022/12/28 06:46:59;;;;;;;37.22;20.27;;;;;;;;;;5090060;28;20495;-66
2022/12/28 06:49:25;;;;;;;37.10;18.70;;;;;;;;;;5089175;28;20417;-66
2022/12/28 06:51:51;;;;;;;44.92;20.00;;;;;;;;;;5088628;28;20371;-67
2022/12/28 06:54:17;;;;;;;36.25;19.33;;;;;;;;;;5108142;28;20380;-66
2022/12/28 06:56:43;;;;;;;39.72;19.30;;;;;;;;;;5107800;28;20047;-67
2022/12/28 06:59:10;;;;;;;40.90;20.75;;;;;;;;;;5104889;28;20051;-66
2022/12/28 07:01:38;;;;;;;38.72;20.38;;;;;;;;;;5102458;28;20403;-67
2022/12/28 07:04:07;;;;;;;44.40;21.70;;;;;;;;;;5087800;28;20044;-67
2022/12/28 07:06:36;;;;;;;50.20;23.75;;;;;;;;;;5095231;28;20047;-66
2022/12/28 07:09:04;;;;;;;42.35;23.00;;;;;;;;;;5078251;28;20103;-66
2022/12/28 07:11:31;;;;;;;44.65;22.30;;;;;;;;;;5095095;28;20075;-67
2022/12/28 07:13:57;;;;;;;49.13;22.08;;;;;;;;;;5075113;28;20044;-67
2022/12/28 07:16:23;;;;;;;56.20;23.00;;;;;;;;;;5094114;28;20052;-67
2022/12/28 07:18:50;;;;;;;43.97;22.63;;;;;;;;;;5097283;28;20534;-66
2022/12/28 07:21:17;;;;;;;54.83;23.25;;;;;;;;;;5101714;28;20040;-66
2022/12/28 07:23:44;;;;;;;45.72;21.88;;;;;;;;;;5096773;28;20055;-66
2022/12/28 07:26:11;;;;;;;44.35;21.20;;;;;;;;;;5100495;28;20078;-66
2022/12/28 07:28:38;;;;;;;46.65;21.23;;;;;;;;;;5100777;28;20050;-66
2022/12/28 07:31:06;;;;;;;46.28;21.20;;;;;;;;;;5101825;28;20104;-66
2022/12/28 07:33:33;;;;;;;51.05;20.10;;;;;;;;;;5099966;28;20043;-67
2022/12/28 07:35:59;;;;;;;36.35;18.15;;;;;;;;;;5082289;28;20168;-66
2022/12/28 07:38:26;;;;;;;46.40;19.63;;;;;;;;;;5099962;28;20135;-66
2022/12/28 07:40:52;;;;;;;50.88;19.90;;;;;;;;;;5101473;28;20501;-66
2022/12/28 07:43:18;;;;;;;45.90;19.70;;;;;;;;;;5099150;28;20056;-67
2022/12/28 07:45:44;;;;;;;47.90;20.67;;;;;;;;;;5079422;28;20134;-66
2022/12/28 07:48:10;;;;;;;45.03;18.55;;;;;;;;;;5096503;28;20407;-67
2022/12/28 07:50:36;;;;;;;48.17;18.67;;;;;;;;;;5100056;28;20126;-67
2022/12/28 07:53:03;;;;;;;43.20;18.35;;;;;;;;;;5101693;28;20054;-67
2022/12/28 07:55:30;;;;;;;45.25;19.17;;;;;;;;;;5084189;28;20050;-67
2022/12/28 07:57:56;;;;;;;39.55;18.13;;;;;;;;;;5104124;28;20415;-68
2022/12/28 08:00:23;;;;;;;34.50;19.10;;;;;;;;;;5103505;28;20134;-67
2022/12/28 08:02:49;;;;;;;40.53;19.08;;;;;;;;;;5098635;28;20173;-67
2022/12/28 08:05:15;;;;;;;35.33;18.45;;;;;;;;;;5098453;28;20048;-68
2022/12/28 08:07:41;;;;;;;37.17;19.25;;;;;;;;;;5097723;28;20044;-67
2022/12/28 08:10:07;;;;;;;34.75;19.13;;;;;;;;;;5099326;28;20040;-67
2022/12/28 08:12:34;;;;;;;38.63;19.08;;;;;;;;;;5081985;28;20471;-66
2022/12/28 08:15:00;;;;;;;40.58;20.85;;;;;;;;;;5079752;28;20051;-67
2022/12/28 08:17:26;;;;;;;38.15;20.98;;;;;;;;;;5102445;28;20056;-67
2022/12/28 08:19:54;;;;;;;39.15;21.55;;;;;;;;;;5101714;28;20040;-67
2022/12/28 08:22:20;;;;;;;42.28;21.17;;;;;;;;;;5097501;28;20051;-66
2022/12/28 08:24:46;;;;;;;44.67;21.30;;;;;;;;;;5102788;28;20115;-66
2022/12/28 08:27:12;;;;;;;37.20;19.60;;;;;;;;;;5085302;28;20092;-66
2022/12/28 08:29:39;;;;;;;30.40;18.38;;;;;;;;;;5107071;28;20115;-66
2022/12/28 08:32:05;;;;;;;32.22;17.23;;;;;;;;;;5108619;28;20081;-67
2022/12/28 08:34:31;;;;;;;24.23;13.18;;;;;;;;;;5090102;28;20039;-67
2022/12/28 08:36:57;;;;;;;21.77;9.68;;;;;;;;;;5089396;28;20039;-67
2022/12/28 08:39:23;;;;;;;19.77;10.60;;;;;;;;;;5108144;28;20164;-67
2022/12/28 08:41:49;;;;;;;20.08;10.82;;;;;;;;;;5087708;28;20125;-67
2022/12/28 08:44:16;;;;;;;23.05;12.07;;;;;;;;;;5108094;27;20058;-67
2022/12/28 08:46:42;;;;;;;22.48;12.52;;;;;;;;;;5088870;28;20043;-67
2022/12/28 08:49:08;;;;;;;26.85;12.35;;;;;;;;;;5111970;27;20105;-67
2022/12/28 08:51:38;;;;;;;25.70;12.68;;;;;;;;;;5089129;28;20111;-66
2022/12/28 08:54:05;;;;;;;21.60;10.93;;;;;;;;;;5107770;27;20048;-67
2022/12/28 08:56:32;;;;;;;24.98;12.05;;;;;;;;;;5091478;28;20120;-67
2022/12/28 08:58:59;;;;;;;23.88;10.82;;;;;;;;;;5087927;28;20117;-67
2022/12/28 09:01:27;;;;;;;20.25;9.70;;;;;;;;;;5089578;28;20046;-67
2022/12/28 09:03:55;;;;;;;15.55;8.38;;;;;;;;;;5109110;27;20043;-66
2022/12/28 09:06:24;;;;;;;12.65;8.32;;;;;;;;;;5090760;27;20036;-66
2022/12/28 09:08:50;;;;;;;12.45;7.47;;;;;;;;;;5109850;27;20542;-66
2022/12/28 09:11:17;;;;;;;17.15;7.40;;;;;;;;;;5100721;28;20510;-66
2022/12/28 09:13:43;;;;;;;14.05;7.10;;;;;;;;;;5106262;28;20398;-66
2022/12/28 09:16:12;;;;;;;11.43;5.53;;;;;;;;;;5104922;28;20042;-71
2022/12/28 09:18:39;;;;;;;11.95;5.07;;;;;;;;;;5105474;28;20055;-66
2022/12/28 09:21:07;;;;;;;8.65;4.18;;;;;;;;;;5102542;28;20036;-79
2022/12/28 09:23:33;;;;;;;12.38;4.93;;;;;;;;;;5105197;28;20496;-66
2022/12/28 09:26:06;;;;;;;10.05;5.18;;;;;;;;;;5103283;28;20040;-66
2022/12/28 09:28:33;;;;;;;12.30;5.57;;;;;;;;;;5099677;28;20097;-66
2022/12/28 09:31:01;;;;;;;14.15;7.55;;;;;;;;;;5102953;27;20129;-66
2022/12/28 09:36:12;;;;;;;18.30;9.57;;;;;;;;;;5102298;28;20044;-66
2022/12/28 09:38:38;;;;;;;20.95;10.75;;;;;;;;;;5103909;28;20074;-66
2022/12/28 09:41:25;;;;;;;22.70;10.40;;;;;;;;;;5097547;28;20036;-66
2022/12/28 09:43:53;;;;;;;15.55;9.10;;;;;;;;;;5096896;28;20388;-66
2022/12/28 09:46:20;;;;;;;14.13;8.27;;;;;;;;;;5100193;28;20056;-66
2022/12/28 09:48:50;;;;;;;21.63;8.95;;;;;;;;;;5082544;28;20047;-66
2022/12/28 09:51:17;;;;;;;15.45;8.32;;;;;;;;;;5102710;28;20047;-69
2022/12/28 09:53:43;;;;;;;12.90;6.95;;;;;;;;;;5077969;28;20081;-66
2022/12/28 09:56:26;;;;;;;12.57;6.82;;;;;;;;;;5096365;28;20749;-66
2022/12/28 09:58:53;;;;;;;15.95;7.80;;;;;;;;;;5086313;28;20100;-66
2022/12/28 10:01:20;;;;;;;15.70;8.18;;;;;;;;;;5107785;28;20491;-65
2022/12/28 10:03:46;;;;;;;15.50;8.70;;;;;;;;;;5111177;28;20181;-66
2022/12/28 10:06:14;;;;;;;17.17;9.93;;;;;;;;;;5111876;28;20042;-66
2022/12/28 10:08:42;;;;;;;19.67;12.18;;;;;;;;;;5092341;28;20391;-65
2022/12/28 10:11:08;;;;;;;20.10;13.05;;;;;;;;;;5093907;28;20119;-65
2022/12/28 10:13:37;;;;;;;22.40;13.68;;;;;;;;;;5111715;28;20804;-66
2022/12/28 10:16:04;;;;;;;20.48;12.57;;;;;;;;;;5110644;28;20376;-65
2022/12/28 10:18:30;;;;;;;20.00;12.02;;;;;;;;;;5091172;28;20055;-65
2022/12/28 10:20:56;;;;;;;18.20;11.68;;;;;;;;;;5090622;28;20047;-65
2022/12/28 10:23:24;;;;;;;16.48;11.52;;;;;;;;;;5087221;28;20075;-65
2022/12/28 10:25:52;;;;;;;23.52;12.82;;;;;;;;;;5107847;28;20431;-65
2022/12/28 10:28:20;;;;;;;21.73;14.10;;;;;;;;;;5108106;28;20039;-65
2022/12/28 10:30:48;;;;;;;26.42;15.15;;;;;;;;;;5107458;28;20392;-65
2022/12/28 10:33:16;;;;;;;28.40;17.50;;;;;;;;;;5109023;28;20055;-65
2022/12/28 10:35:48;;;;;;;30.95;17.83;;;;;;;;;;5087721;28;20076;-65
2022/12/28 10:38:20;;;;;;;31.95;17.90;;;;;;;;;;5089424;28;20067;-65
2022/12/28 10:40:54;;;;;;;28.58;17.23;;;;;;;;;;5107469;28;20043;-65
2022/12/28 10:43:21;;;;;;;31.55;17.73;;;;;;;;;;5105193;28;20058;-65
2022/12/28 10:45:49;;;;;;;37.65;18.55;;;;;;;;;;5087861;28;20055;-65
2022/12/28 10:48:18;;;;;;;40.13;18.95;;;;;;;;;;5104577;28;20044;-65
2022/12/28 10:50:50;;;;;;;28.60;13.60;;;;;;;;;;5091854;27;20907;-65
2022/12/28 10:53:19;;;;;;;32.65;13.15;;;;;;;;;;5106294;28;20044;-66
2022/12/28 10:55:45;;;;;;;28.77;14.20;;;;;;;;;;5109328;28;20036;-65
2022/12/28 10:58:22;;;;;;;30.83;14.10;;;;;;;;;;5108562;28;20040;-65
2022/12/28 11:00:53;;;;;;;31.70;14.52;;;;;;;;;;5088483;28;20039;-65
2022/12/28 11:03:23;;;;;;;34.85;16.88;;;;;;;;;;5105392;28;20056;-66
2022/12/28 11:05:49;;;;;;;38.65;17.75;;;;;;;;;;5087370;28;20372;-66
2022/12/28 11:08:16;;;;;;;39.35;17.65;;;;;;;;;;5107934;28;20038;-66
2022/12/28 11:10:42;;;;;;;35.72;18.02;;;;;;;;;;5106086;28;20043;-66
2022/12/28 11:13:16;;;;;;;37.78;18.77;;;;;;;;;;5105671;28;20076;-65
2022/12/28 11:15:43;;;;;;;40.10;19.08;;;;;;;;;;5106340;28;20147;-65
2022/12/28 11:18:16;;;;;;;42.67;19.25;;;;;;;;;;5106445;28;20070;-65
2022/12/28 11:20:44;;;;;;;42.28;19.88;;;;;;;;;;5104568;28;20048;-65
2022/12/28 11:23:16;;;;;;;35.05;17.38;;;;;;;;;;5071603;28;20043;-65
2022/12/28 11:25:42;;;;;;;33.83;16.45;;;;;;;;;;5088010;28;20613;-66
2022/12/28 11:28:15;;;;;;;26.73;14.90;;;;;;;;;;5106237;28;20494;-65
2022/12/28 11:30:42;;;;;;;25.45;14.00;;;;;;;;;;5087303;28;20078;-65
2022/12/28 11:33:21;;;;;;;25.13;13.48;;;;;;;;;;5068821;28;20039;-66
2022/12/28 11:35:49;;;;;;;26.27;14.38;;;;;;;;;;5106287;28;20055;-66
2022/12/28 11:38:35;;;;;;;23.95;13.60;;;;;;;;;;5088065;28;20118;-66
2022/12/28 11:41:01;;;;;;;23.90;14.77;;;;;;;;;;5105816;28;20479;-65
2022/12/28 11:43:28;;;;;;;29.40;15.07;;;;;;;;;;5105798;28;20047;-65
2022/12/28 11:45:55;;;;;;;27.27;15.52;;;;;;;;;;5072767;28;20413;-65
2022/12/28 11:48:38;;;;;;;24.35;14.10;;;;;;;;;;5107254;28;20050;-66
2022/12/28 11:51:05;;;;;;;23.95;13.02;;;;;;;;;;5105816;28;20134;-65
2022/12/28 11:53:31;;;;;;;25.42;13.63;;;;;;;;;;5106051;28;20479;-66
2022/12/28 11:56:06;;;;;;;26.17;14.48;;;;;;;;;;5088049;28;20039;-65
2022/12/28 11:58:34;;;;;;;25.25;14.07;;;;;;;;;;5105451;28;20070;-65
2022/12/28 12:01:01;;;;;;;20.38;12.63;;;;;;;;;;5097024;28;20200;-64
2022/12/28 12:03:46;;;;;;;21.77;12.25;;;;;;;;;;5093397;28;20079;-65
2022/12/28 12:06:12;;;;;;;23.65;13.15;;;;;;;;;;5096983;28;20039;-65
2022/12/28 12:08:40;;;;;;;22.80;13.57;;;;;;;;;;5097934;28;20043;-65
2022/12/28 12:11:20;;;;;;;22.45;12.77;;;;;;;;;;5099519;28;20417;-65
2022/12/28 12:13:49;;;;;;;22.30;13.88;;;;;;;;;;5048931;28;20167;-65
2022/12/28 12:16:24;;;;;;;23.08;13.90;;;;;;;;;;5089459;28;20403;-66
2022/12/28 12:18:52;;;;;;;26.20;15.23;;;;;;;;;;5088358;28;20070;-66
2022/12/28 12:21:31;;;;;;;25.38;15.90;;;;;;;;;;5087575;28;20162;-66
2022/12/28 12:24:03;;;;;;;26.83;14.95;;;;;;;;;;5084459;28;20040;-66
2022/12/28 12:26:36;;;;;;;24.83;14.85;;;;;;;;;;5060826;28;20055;-66
2022/12/28 12:29:07;;;;;;;24.98;15.73;;;;;;;;;;5100739;28;20127;-65
2022/12/28 12:31:41;;;;;;;27.33;15.43;;;;;;;;;;5103090;28;20138;-66
2022/12/28 12:34:12;;;;;;;24.05;14.68;;;;;;;;;;5103370;28;20067;-65
2022/12/28 12:36:46;;;;;;;23.48;15.05;;;;;;;;;;5081181;28;20052;-66
2022/12/28 12:39:12;;;;;;;;;;;;;;;;;;5100388;28;20138;-66
2022/12/28 12:41:38;;;;;;;23.17;14.18;;;;;;;;;;5083275;28;20018;-65
2022/12/28 12:44:15;;;;;;;28.70;14.43;;;;;;;;;;5095580;28;20120;-65
2022/12/28 12:46:49;;;;;;;21.25;13.70;;;;;;;;;;5096892;28;20115;-65
2022/12/28 12:49:25;;;;;;;16.45;11.63;;;;;;;;;;5080356;28;20425;-65
2022/12/28 12:52:00;;;;;;;18.77;11.73;;;;;;;;;;5081512;28;20054;-65
2022/12/28 12:54:34;;;;;;;18.63;11.93;;;;;;;;;;5099539;28;20146;-65
2022/12/28 12:57:05;;;;;;;20.23;12.48;;;;;;;;;;5077338;28;20092;-65
2022/12/28 12:59:35;;;;;;;19.63;12.77;;;;;;;;;;5103041;28;20043;-65
2022/12/28 13:02:18;;;;;;;19.10;12.93;;;;;;;;;;5105407;28;20507;-65
2022/12/28 13:04:45;;;;;;;17.30;12.93;;;;;;;;;;5102376;28;20039;-65
2022/12/28 13:07:17;;;;;;;18.40;12.68;;;;;;;;;;5065234;28;20051;-65
2022/12/28 13:09:43;;;;;;;21.27;12.40;;;;;;;;;;5081089;28;20327;-65
2022/12/28 13:12:17;;;;;;;19.52;13.13;;;;;;;;;;5101046;28;20051;-65
2022/12/28 13:14:45;;;;;;;26.35;13.13;;;;;;;;;;5102907;28;20050;-65
2022/12/28 13:17:15;;;;;;;20.17;12.88;;;;;;;;;;5088281;28;20138;-66
2022/12/28 13:19:41;;;;;;;19.08;11.60;;;;;;;;;;5088644;28;20778;-65
2022/12/28 13:22:24;;;;;;;16.98;11.68;;;;;;;;;;5090033;28;20043;-65
2022/12/28 13:24:51;;;;;;;19.08;11.77;;;;;;;;;;5086913;28;20121;-66
2022/12/28 13:27:18;;;;;;;18.10;11.40;;;;;;;;;;5105533;28;20092;-65
2022/12/28 13:29:50;;;;;;;18.50;11.27;;;;;;;;;;5104635;28;20050;-66
2022/12/28 13:32:28;;;;;;;15.88;10.73;;;;;;;;;;5105605;28;20050;-65
2022/12/28 13:34:54;;;;;;;18.65;10.70;;;;;;;;;;5088172;28;20178;-66
2022/12/28 13:37:21;;;;;;;17.13;10.57;;;;;;;;;;5105757;28;20039;-66
2022/12/28 13:39:47;;;;;;;17.73;10.27;;;;;;;;;;5107131;28;20039;-66
2022/12/28 13:42:17;;;;;;;13.32;8.98;;;;;;;;;;5102875;28;20048;-66
2022/12/28 13:44:50;;;;;;;16.60;9.32;;;;;;;;;;5105693;28;20526;-66
2022/12/28 13:47:17;;;;;;;14.35;9.00;;;;;;;;;;5105138;28;20040;-65
2022/12/28 13:49:48;;;;;;;16.38;9.32;;;;;;;;;;5104029;28;20150;-65
2022/12/28 13:52:18;;;;;;;12.82;7.70;;;;;;;;;;5107603;28;20043;-66
2022/12/28 13:54:47;;;;;;;12.25;8.50;;;;;;;;;;5100818;28;20365;-66
2022/12/28 13:57:15;;;;;;;12.60;7.55;;;;;;;;;;5103887;28;20040;-65
2022/12/28 13:59:41;;;;;;;14.25;7.78;;;;;;;;;;5104063;28;20060;-66
2022/12/28 14:02:12;;;;;;;15.20;7.63;;;;;;;;;;5083114;28;20483;-66
2022/12/28 14:04:38;;;;;;;15.32;7.38;;;;;;;;;;5106089;28;20043;-66
2022/12/28 14:07:10;;;;;;;13.65;7.55;;;;;;;;;;5104512;28;20114;-66
2022/12/28 14:09:36;;;;;;;9.15;6.78;;;;;;;;;;5106271;28;20049;-65
2022/12/28 14:12:03;;;;;;;16.63;8.43;;;;;;;;;;5107821;28;20074;-65
2022/12/28 14:14:29;;;;;;;18.13;7.38;;;;;;;;;;5106341;28;20434;-65
2022/12/28 14:16:56;;;;;;;16.65;7.97;;;;;;;;;;5103384;28;20482;-65
2022/12/28 14:19:22;;;;;;;20.88;8.13;;;;;;;;;;5102963;28;20075;-66
2022/12/28 14:21:50;;;;;;;14.23;8.20;;;;;;;;;;5083819;28;20101;-66
2022/12/28 14:24:16;;;;;;;16.42;7.43;;;;;;;;;;5085736;28;20047;-66
2022/12/28 14:26:49;;;;;;;16.60;7.68;;;;;;;;;;5105673;28;20040;-66
2022/12/28 14:29:26;;;;;;;14.73;6.68;;;;;;;;;;5106603;28;20071;-65
2022/12/28 14:31:55;;;;;;;16.02;7.47;;;;;;;;;;5086887;28;20361;-65
2022/12/28 14:34:23;;;;;;;14.77;7.05;;;;;;;;;;5083953;28;20548;-66
2022/12/28 14:36:52;;;;;;;16.77;6.90;;;;;;;;;;5087655;28;20051;-65
2022/12/28 14:39:21;;;;;;;15.82;7.40;;;;;;;;;;5103453;28;20522;-66
2022/12/28 14:41:47;;;;;;;17.55;8.00;;;;;;;;;;5103707;28;20131;-66
2022/12/28 14:44:17;;;;;;;21.02;7.85;;;;;;;;;;5084566;28;20052;-66
2022/12/28 14:46:43;;;;;;;14.80;6.82;;;;;;;;;;5085872;28;20040;-66
2022/12/28 14:49:28;;;;;;;20.08;6.90;;;;;;;;;;5081936;28;20135;-66
2022/12/28 14:51:54;;;;;;;15.48;7.00;;;;;;;;;;5087623;28;20377;-66